EW1486 Weather Reports


Display with metric or nautical units.
time (UTC)temp
F
wind
direction
speed
MPH
gust
MPH
rain 1hr
in
rain 24hr
in
rain mn
in
humidity
%
barometer
mb
20210803094512 69 138 0.0 0.0 0.00 0.00 0.00 68 1013.0
20210803093021 70 138 0.0 0.0 0.00 0.00 0.00 68 1013.1
20210803091504 70 138 0.0 0.0 0.00 0.00 0.00 69 1013.2
20210803090003 70 138 0.0 0.0 0.00 0.00 0.00 68 1013.3
20210803084506 70 138 0.0 0.0 0.00 0.00 0.00 68 1013.4
20210803083201 70 138 0.0 0.0 0.00 0.00 0.00 67 1013.3
20210803081656 71 138 0.0 0.0 0.00 0.00 0.00 66 1013.5
20210803080117 71 138 0.0 0.0 0.00 0.00 0.00 65 1013.5
20210803074554 71 138 0.0 0.0 0.00 0.00 0.00 65 1013.6
20210803073038 71 138 0.0 0.0 0.00 0.00 0.00 64 1013.7
20210803071550 72 138 0.0 3.0 0.00 0.00 0.00 63 1013.8
20210803070038 72 142 0.0 6.0 0.00 0.00 0.00 62 1013.8
20210803064537 73 140 1.0 10.0 0.00 0.00 0.00 60 1013.9
20210803063044 73 139 8.0 12.0 0.00 0.00 0.00 59 1014.0
20210803061600 73 147 9.0 13.0 0.00 0.00 0.00 59 1014.1
20210803060021 73 157 7.0 14.0 0.00 0.00 0.00 58 1014.3
20210803054626 74 153 5.0 11.0 0.00 0.00 0.00 57 1014.2
20210803053126 74 167 0.0 5.0 0.00 0.00 0.00 57 1014.3
20210803051547 74 161 0.0 8.0 0.00 0.00 0.00 58 1014.3
20210803050113 74 148 0.0 1.0 0.00 0.00 0.00 60 1014.2
20210803044555 74 175 0.0 0.0 0.00 0.00 0.00 62 1014.1
20210803043132 74 170 0.0 0.0 0.00 0.00 0.00 64 1014.0
20210803041632 75 133 0.0 0.0 0.00 0.00 0.00 58 1014.0
20210803040329 76 132 0.0 0.0 0.00 0.00 0.00 55 1013.7
20210803034725 76 133 0.0 0.0 0.00 0.00 0.00 54 1013.4
20210803033114 76 133 0.0 0.0 0.00 0.00 0.00 54 1013.2
20210803031610 76 133 0.0 0.0 0.00 0.00 0.00 54 1012.8
20210803030111 76 138 0.0 1.0 0.00 0.00 0.00 57 1012.4
20210803024503 75 155 0.0 2.0 0.00 0.00 0.00 65 1012.5
20210803023003 76 156 0.0 1.0 0.00 0.00 0.00 66 1012.4
20210803021512 76 156 0.0 2.0 0.00 0.00 0.00 61 1012.4
20210803020015 77 307 0.0 0.0 0.00 0.00 0.00 60 1012.5
20210803014504 77 307 0.0 0.0 0.00 0.00 0.00 57 1012.5
20210803013002 76 307 0.0 0.0 0.00 0.00 0.00 63 1012.4
20210803011503 77 307 0.0 0.0 0.00 0.00 0.00 68 1012.1
20210803010341 78 307 0.0 0.0 0.00 0.00 0.00 54 1011.8
20210803004617 78 307 0.0 0.0 0.00 0.00 0.00 54 1011.8
20210803003109 78 307 0.0 0.0 0.00 0.00 0.00 54 1011.7
20210803001559 78 307 0.0 0.0 0.00 0.00 0.00 54 1011.7
20210803000043 77 307 0.0 0.0 0.00 0.00 0.00 57 1011.8
20210802234513 75 307 0.0 0.0 0.00 0.00 0.00 61 1012.2
20210802233004 76 308 0.0 0.0 0.00 0.00 0.00 61 1012.2
20210802231702 75 309 0.0 0.0 0.00 0.00 0.00 63 1012.2
20210802230106 77 311 0.0 1.0 0.00 0.00 0.00 61 1012.4
20210802224638 78 236 0.0 0.0 0.00 0.00 0.00 58 1012.4
20210802223117 77 241 0.0 0.0 0.00 0.00 0.00 60 1012.4
20210802221609 77 257 0.0 0.0 0.00 0.00 0.00 61 1012.3
20210802220116 78 208 0.0 1.0 0.00 0.00 0.00 57 1012.2
20210802214901 80 163 0.0 2.0 0.00 0.00 0.00 53 1012.4
20210802213215 79 129 0.0 0.0 0.00 0.00 0.00 51 1012.5
20210802211619 80 36 0.0 3.0 0.00 0.00 0.00 53 1012.6
20210802210123 81 134 0.0 3.0 0.00 0.00 0.00 50 1012.6
20210802204553 82 113 0.0 1.0 0.00 0.00 0.00 45 1012.6
20210802203101 83 85 0.0 1.0 0.00 0.00 0.00 44 1012.8
20210802201542 83 43 0.0 0.0 0.00 0.00 0.00 46 1013.0
20210802200024 81 50 0.0 0.0 0.00 0.00 0.00 49 1013.3
20210802194602 82 30 0.0 0.0 0.00 0.00 0.00 48 1013.5
20210802193134 82 32 0.0 0.0 0.00 0.00 0.00 48 1013.7
20210802191505 81 49 0.0 0.0 0.00 0.00 0.00 49 1014.0
20210802190005 81 24 0.0 0.0 0.00 0.00 0.00 50 1014.2
20210802184720 79 25 0.0 0.0 0.00 0.00 0.00 55 1014.4
20210802183232 78 254 0.0 0.0 0.00 0.00 0.00 56 1014.7
20210802181633 79 320 0.0 0.0 0.00 0.00 0.00 58 1014.9
20210802180138 76 276 0.0 0.0 0.00 0.00 0.00 62 1015.2
20210802174700 77 283 0.0 0.0 0.00 0.00 0.00 60 1015.3
20210802173251 79 255 0.0 0.0 0.00 0.00 0.00 58 1015.5
20210802171628 78 32 0.0 0.0 0.00 0.00 0.00 60 1015.8
20210802170120 74 306 0.0 1.0 0.00 0.00 0.00 66 1016.0
20210802164621 74 246 0.0 1.0 0.00 0.00 0.00 66 1015.9
20210802163128 73 247 0.0 0.0 0.00 0.00 0.00 67 1016.0
20210802161618 73 252 0.0 0.0 0.00 0.00 0.00 68 1016.0
20210802160104 73 322 0.0 0.0 0.00 0.00 0.00 68 1016.1
20210802154614 71 311 0.0 0.0 0.00 0.00 0.00 73 1016.1
20210802153126 71 252 0.0 0.0 0.00 0.00 0.00 71 1016.2
20210802151533 71 251 0.0 0.0 0.00 0.00 0.00 72 1016.2
20210802150036 70 291 0.0 0.0 0.00 0.00 0.00 73 1016.2
20210802144548 69 310 0.0 0.0 0.00 0.00 0.00 73 1016.3
20210802143048 69 289 0.0 0.0 0.00 0.00 0.00 74 1016.3
20210802141706 69 293 0.0 0.0 0.00 0.00 0.00 75 1016.1
20210802140022 68 287 0.0 0.0 0.00 0.01 0.00 74 1016.0
20210802134556 68 277 0.0 0.0 0.00 0.01 0.00 76 1016.0
20210802133018 68 257 0.0 0.0 0.00 0.01 0.00 77 1016.0
20210802131635 67 257 0.0 0.0 0.00 0.01 0.00 79 1015.8
20210802130157 67 257 0.0 0.0 0.00 0.01 0.00 80 1015.8
20210802124552 67 257 0.0 0.0 0.00 0.01 0.00 81 1015.6
20210802123055 68 249 0.0 1.0 0.00 0.01 0.00 81 1015.4
20210802121645 68 240 0.0 1.0 0.00 0.01 0.00 80 1015.3
20210802120122 68 246 0.0 4.0 0.00 0.01 0.00 79 1015.1
20210802114603 69 253 0.0 2.0 0.00 0.01 0.00 77 1014.9
20210802113049 69 267 0.0 0.0 0.00 0.01 0.00 76 1014.9
20210802111624 69 275 0.0 0.0 0.00 0.01 0.00 75 1014.8
20210802110122 70 32 0.0 0.0 0.00 0.01 0.00 72 1014.7
20210802104539 71 32 0.0 0.0 0.00 0.01 0.00 69 1014.7
20210802103021 70 32 0.0 0.0 0.00 0.01 0.00 71 1014.6
20210802101554 70 32 0.0 0.0 0.00 0.01 0.00 71 1014.6
20210802100149 70 5 0.0 0.0 0.00 0.01 0.00 71 1014.7